地に足つけて、空高く!!

LUXURY FLIGHT

080-7560-1817

羽田空港本店: 所在地: 東京都大田区羽田空港3-3-2    セントレア店: 所在地: 愛知県常滑市セントレア1-1      HICityファイター店: 所在地: 東京都大田区羽田空港1-1-4
           第1旅客ターミナル5階                  FLIGHT OF DREAMS FLIGHT PARK                 HANEDA INNOVATION CITY ZONE-J 2-5
      営業時間: 10:00~20:00 定休日: 年中無休         営業時間: 10:00~20:00 定休日: 年中無休             営業時間: 10:00~20:00 定休日: 年中無休
      電話番号: 080-7560-1817                  電話番号: 080-4945-5666                     電話番号: 03-5579-7980

lv

地に足つけて、空高く!!

STAFF BLOG

2020/10/07 地に足つけて、空高く!!

中部よりこんにちはーーーーー!!

 

RJGG 070600Z 17005KT 9999 -RA FEW010 SCT060 BKN110 21/15 Q1021 NOSIG

秋雨前線がゆっくり北上して近づいてきて、セントレアも弱い雨が降ってきました

 

本日、ご紹介させていただくのは、

先日お越しいただいた、Iさま親子

 

グランドスタッフを目指す御令嬢さま

グランドハンドリング(グラハン)を目指す御子息さま

あたたかく見守るお母さまが、

ハイテンションで遊びに来てくださいました!

 

今回は、御子息さまが代表で、747ドリームリフターに挑戦

はじめは、巨大なリフターのコクピットの迫力や、

操縦桿の重さ、慣性の大きさに圧倒されていたご様子

 

しかし、徐々にコツを掴み、優しいコントロール操縦で、

コクピットからの眺めを含め、ご家族との空中散歩を楽しむ余裕も

 

アプローチ中も、細かい操作で姿勢を安定!

最後は、滑走路ど真ん中に、ウルトラソフトランディング〜〜〜!

 

eb36eb75-a877-4580-88c6-6d6dac4d8070

今回は残念ながら、お綺麗なお母さまは恥ずかしいとのことで、

お写真はお子さまのツーショットで

 

はい、チーズ!!

 

コロナ禍で、航空業界はかつてない非常に厳しい状況にはございますが、

パイロット、CAさん、管制官、グラハン、グランドスタッフなど、運航や空港業務を支える、

ひとりひとりのプロたちの頑張りで、必ず好転していくはずですよね!

お母さまゆずりの聡明で素敵な笑顔のおふたりをはじめ、夢を持つ多くの若者たちが、

航空の未来、日本の未来を明るく輝かせる存在になっていただければ、幸いです!

 

弊社もCEOを先頭に、皆さまからの巨大すぎるほどのエネルギーを頂戴し、

今後も邁進して参ります!

 

いつもブログをお読みくださり、本当にありがとうございます。

「感謝」

 

TOP